Time;durP1;ratioP1;P1;durP2;ratioP2;P2;SDS_P1;SDS_P2;PMS_P1;PMS_P2;Temp;Humidity;BMP_temperature;BMP_pressure;BME280_temperature;BME280_humidity;BME280_pressure;Samples;Min_cycle;Max_cycle;Signal;HPM_P1;HPM_P2
2021/03/27 00:00:00;;;;;;;45.20;27.25;;;;;;;6.72;68.83;99606.56;1827398;78;21738;-62
2021/03/27 00:02:39;;;;;;;45.78;26.25;;;;;;;6.67;68.81;99597.41;1808890;77;21130;-63
2021/03/27 00:05:21;;;;;;;50.05;27.17;;;;;;;6.67;68.85;99597.41;1794826;80;21148;-62
2021/03/27 00:08:19;;;;;;;46.02;26.42;;;;;;;6.72;68.92;99588.61;1870637;76;22132;-63
2021/03/27 00:11:00;;;;;;;37.73;24.30;;;;;;;6.64;68.85;99590.90;1827444;78;21118;-63
2021/03/27 00:13:59;;;;;;;43.38;24.65;;;;;;;6.56;69.02;99585.87;1805761;78;21108;-61
2021/03/27 00:16:58;;;;;;;40.85;25.57;;;;;;;6.50;69.21;99587.80;1795079;80;21159;-62
2021/03/27 00:19:48;;;;;;;45.80;26.62;;;;;;;6.47;69.44;99586.41;1795070;79;21128;-62
2021/03/27 00:22:24;;;;;;;41.20;25.52;;;;;;;6.46;69.42;99587.63;1795361;80;21136;-63
2021/03/27 00:25:12;;;;;;;45.67;23.77;;;;;;;6.52;69.37;99587.88;1780873;80;22232;-62
2021/03/27 00:28:03;;;;;;;41.28;25.50;;;;;;;6.50;69.36;99584.38;1795112;80;21305;-60
2021/03/27 00:30:45;;;;;;;39.40;24.02;;;;;;;6.49;69.38;99586.48;1795288;78;21298;-63
2021/03/27 00:33:13;;;;;;;47.10;27.07;;;;;;;6.50;69.37;99588.22;1795480;78;21135;-60
2021/03/27 00:35:46;;;;;;;44.25;25.10;;;;;;;6.46;69.39;99585.96;1795434;80;21298;-61
2021/03/27 00:38:19;;;;;;;49.45;25.65;;;;;;;6.45;69.55;99594.45;1794948;79;21294;-60
2021/03/27 00:40:52;;;;;;;48.83;27.02;;;;;;;6.40;69.57;99584.84;1794981;79;21588;-60
2021/03/27 00:43:33;;;;;;;46.55;25.48;;;;;;;6.42;69.64;99588.34;1795462;80;21278;-63
2021/03/27 00:46:05;;;;;;;43.95;26.60;;;;;;;6.42;69.66;99580.24;1795112;79;21097;-61
2021/03/27 00:48:53;;;;;;;42.60;26.48;;;;;;;6.42;69.73;99583.22;1795064;80;21151;-61
2021/03/27 00:51:29;;;;;;;48.23;27.07;;;;;;;6.39;69.75;99586.95;1791219;80;21147;-60
2021/03/27 00:54:11;;;;;;;51.85;26.93;;;;;;;6.39;69.78;99584.39;1794580;79;21270;-60
2021/03/27 00:57:06;;;;;;;43.52;25.72;;;;;;;6.39;69.82;99590.80;1794730;78;21131;-63
2021/03/27 00:59:37;;;;;;;;;;;;;;;6.38;69.86;99587.34;1798063;80;21171;-63
2021/03/27 01:02:12;;;;;;;46.63;25.88;;;;;;;6.35;69.92;99591.48;1775133;80;20145;-62
2021/03/27 01:05:04;;;;;;;43.30;25.70;;;;;;;6.32;70.05;99589.69;1795208;80;21151;-61
2021/03/27 01:07:52;;;;;;;42.93;26.48;;;;;;;6.32;70.12;99588.81;1783756;79;21152;-61
2021/03/27 01:10:58;;;;;;;46.25;26.97;;;;;;;6.30;70.16;99585.77;1781718;79;21168;-62
2021/03/27 01:13:41;;;;;;;47.07;28.40;;;;;;;6.30;70.19;99584.91;1781563;80;21622;-63
2021/03/27 01:16:15;;;;;;;43.80;25.48;;;;;;;6.30;70.37;99592.18;1781449;80;21617;-60
2021/03/27 01:18:50;;;;;;;49.60;26.90;;;;;;;6.35;70.35;99591.48;1780992;80;21121;-61
2021/03/27 01:21:26;;;;;;;41.35;26.40;;;;;;;6.38;70.29;99589.03;1780584;79;21148;-62
2021/03/27 01:24:03;;;;;;;44.53;26.27;;;;;;;6.39;70.18;99586.95;1780638;79;21690;-63
2021/03/27 01:26:48;;;;;;;45.58;26.27;;;;;;;6.41;70.11;99589.14;1781063;80;21140;-60
2021/03/27 01:29:34;;;;;;;45.43;26.70;;;;;;;6.42;70.01;99587.94;1781311;80;21144;-60
2021/03/27 01:32:20;;;;;;;43.02;25.27;;;;;;;6.42;70.01;99587.06;1781181;80;21171;-61
2021/03/27 01:35:06;;;;;;;41.48;26.42;;;;;;;6.40;69.98;99592.54;1780928;79;21171;-64
2021/03/27 01:37:48;;;;;;;44.65;26.85;;;;;;;6.39;69.99;99583.98;1781082;79;21305;-62
2021/03/27 01:40:39;;;;;;;43.75;26.15;;;;;;;6.38;69.99;99594.16;1780855;79;21144;-62
2021/03/27 01:43:37;;;;;;;41.95;25.43;;;;;;;6.37;70.00;99580.89;1755013;80;21172;-62
2021/03/27 01:46:31;;;;;;;44.30;27.22;;;;;;;6.34;70.06;99585.91;1780982;80;21275;-63
2021/03/27 01:49:32;;;;;;;46.45;25.65;;;;;;;6.34;70.12;99584.63;1781252;80;21302;-64
2021/03/27 01:52:08;;;;;;;46.30;26.20;;;;;;;6.33;70.10;99588.86;1781057;79;21294;-61
2021/03/27 01:55:27;;;;;;;51.73;27.58;;;;;;;6.38;70.01;99593.75;1780679;80;21112;-61
2021/03/27 01:58:22;;;;;;;45.00;27.05;;;;;;;6.42;69.86;99589.63;1781144;79;21290;-60
2021/03/27 02:00:58;;;;;;;42.35;26.05;;;;;;;6.36;69.93;99585.16;1781147;80;21295;-62
2021/03/27 02:03:35;;;;;;;48.83;27.75;;;;;;;6.38;69.98;99585.19;1780821;79;21265;-60
2021/03/27 02:06:17;;;;;;;46.00;26.90;;;;;;;6.37;70.02;99584.73;1781012;79;21215;-61
2021/03/27 02:09:12;;;;;;;48.25;27.77;;;;;;;6.36;70.01;99591.95;1780915;80;21148;-65
2021/03/27 02:12:21;;;;;;;47.45;29.18;;;;;;;6.37;69.99;99593.71;1780860;80;21302;-61
2021/03/27 02:15:01;;;;;;;49.75;30.45;;;;;;;6.36;70.00;99591.95;1759877;80;21097;-64
2021/03/27 02:17:45;;;;;;;48.42;28.55;;;;;;;6.37;70.12;99597.56;1780846;80;21097;-63
2021/03/27 02:20:43;;;;;;;49.48;27.93;;;;;;;6.32;70.12;99594.81;1780943;80;21117;-63
2021/03/27 02:24:02;;;;;;;44.98;28.62;;;;;;;6.33;70.17;99596.96;1780947;80;21298;-62
2021/03/27 02:27:05;;;;;;;52.08;30.70;;;;;;;6.36;70.19;99598.35;1781135;79;21149;-64
2021/03/27 02:30:01;;;;;;;63.50;38.67;;;;;;;6.37;70.14;99600.13;1780721;80;21186;-62
2021/03/27 02:32:56;;;;;;;52.30;32.93;;;;;;;6.37;70.13;99606.53;1781097;79;21140;-64
2021/03/27 02:35:52;;;;;;;55.95;32.28;;;;;;;6.37;70.02;99607.81;1781277;79;21136;-61
2021/03/27 02:38:43;;;;;;;48.78;29.27;;;;;;;6.34;70.09;99603.44;1780791;79;21298;-62
2021/03/27 02:41:32;;;;;;;51.53;28.87;;;;;;;6.36;70.09;99610.79;1780800;79;21160;-63
2021/03/27 02:44:09;;;;;;;46.63;27.90;;;;;;;6.38;69.97;99603.14;1780802;79;21136;-62
2021/03/27 02:46:49;;;;;;;54.18;32.48;;;;;;;6.40;69.93;99602.80;1780856;80;21105;-64
2021/03/27 02:49:51;;;;;;;48.80;30.50;;;;;;;6.43;69.88;99600.34;1781258;80;21554;-63
2021/03/27 02:52:33;;;;;;;50.55;30.37;;;;;;;6.50;69.80;99602.32;1780727;79;21105;-64
2021/03/27 02:55:37;;;;;;;53.55;30.82;;;;;;;6.55;69.73;99604.65;1780823;79;21144;-61
2021/03/27 02:58:29;;;;;;;55.55;28.95;;;;;;;6.58;69.66;99606.03;1781056;80;21255;-62
2021/03/27 03:01:14;;;;;;;51.23;30.57;;;;;;;6.58;69.54;99603.47;1781129;80;21295;-62
2021/03/27 03:04:07;;;;;;;42.03;26.82;;;;;;;6.59;69.45;99603.95;1780704;80;21326;-65
2021/03/27 03:06:43;;;;;;;48.17;27.70;;;;;;;6.61;69.36;99607.84;1780890;79;21148;-62
2021/03/27 03:09:50;;;;;;;53.13;29.02;;;;;;;6.65;69.21;99608.44;1780808;80;21124;-61
2021/03/27 03:12:40;;;;;;;45.08;27.65;;;;;;;6.64;69.15;99607.56;1781076;80;21137;-64
2021/03/27 03:15:29;;;;;;;49.80;29.42;;;;;;;6.62;69.13;99610.47;1780412;80;21164;-64
2021/03/27 03:18:29;;;;;;;45.30;28.17;;;;;;;6.60;69.16;99612.52;1778528;80;21152;-61
2021/03/27 03:21:03;;;;;;;46.37;28.02;;;;;;;6.59;69.17;99614.22;1781075;79;21152;-64
2021/03/27 03:23:37;;;;;;;47.15;27.42;;;;;;;6.56;69.16;99611.52;1780799;80;21192;-63
2021/03/27 03:26:42;;;;;;;49.73;28.15;;;;;;;6.50;69.29;99616.42;1780806;79;21112;-63
2021/03/27 03:29:41;;;;;;;49.55;29.70;;;;;;;6.47;69.39;99612.47;1780796;79;21335;-63
2021/03/27 03:32:45;;;;;;;50.12;29.72;;;;;;;6.45;69.49;99612.81;1780798;79;21161;-60
2021/03/27 03:35:34;;;;;;;48.65;29.42;;;;;;;6.43;69.53;99623.00;1780929;79;21144;-61
2021/03/27 03:38:42;;;;;;;47.13;28.73;;;;;;;6.38;69.63;99623.23;1780740;80;21113;-63
2021/03/27 03:41:36;;;;;;;52.88;29.15;;;;;;;6.36;69.71;99626.17;1780800;80;21149;-62
2021/03/27 03:44:25;;;;;;;48.63;29.87;;;;;;;6.35;69.75;99624.81;1780769;80;21301;-60
2021/03/27 03:47:19;;;;;;;49.20;29.70;;;;;;;6.34;69.82;99620.52;1781016;79;21343;-61
2021/03/27 03:50:29;;;;;;;50.98;30.65;;;;;;;6.30;69.89;99620.37;1752386;79;21134;-60
2021/03/27 03:53:26;;;;;;;46.88;28.80;;;;;;;6.23;70.08;99614.95;1799229;79;21147;-65
2021/03/27 03:56:20;;;;;;;47.98;28.70;;;;;;;6.20;70.25;99623.39;1807116;78;21272;-65
2021/03/27 03:59:13;;;;;;;57.23;31.33;;;;;;;6.18;70.35;99618.64;1812653;78;21222;-63
2021/03/27 04:01:49;;;;;;;53.58;30.02;;;;;;;6.16;70.47;99622.83;1812558;78;21269;-65
2021/03/27 04:04:46;;;;;;;51.00;29.60;;;;;;;6.14;70.66;99623.59;1790909;79;21321;-62
2021/03/27 04:07:32;;;;;;;48.83;30.00;;;;;;;6.16;70.80;99621.96;1778130;80;21230;-62
2021/03/27 04:10:18;;;;;;;53.95;31.52;;;;;;;6.20;70.78;99624.67;1765015;80;21290;-63
2021/03/27 04:13:19;;;;;;;51.95;31.10;;;;;;;6.29;70.63;99630.17;1764863;81;21251;-60
2021/03/27 04:15:56;;;;;;;55.12;32.38;;;;;;;6.38;70.44;99633.48;1764908;80;21305;-63
2021/03/27 04:18:45;;;;;;;53.98;31.12;;;;;;;6.43;70.33;99627.26;1764623;80;21155;-63
2021/03/27 04:21:27;;;;;;;52.62;30.80;;;;;;;6.53;70.17;99632.78;1764520;80;21706;-62
2021/03/27 04:24:12;;;;;;;58.48;31.93;;;;;;;6.58;69.91;99631.68;1763679;81;21148;-60
2021/03/27 04:26:52;;;;;;;53.05;31.48;;;;;;;6.60;69.81;99636.88;1763369;80;21727;-63
2021/03/27 04:30:02;;;;;;;53.48;31.87;;;;;;;6.64;69.80;99642.19;1764450;80;21216;-60
2021/03/27 04:32:54;;;;;;;50.92;29.67;;;;;;;6.71;69.63;99642.86;1747005;81;21285;-62
2021/03/27 04:35:39;;;;;;;51.08;30.25;;;;;;;6.79;69.42;99638.42;1764931;80;21218;-64
2021/03/27 04:38:19;;;;;;;53.40;31.73;;;;;;;6.88;69.25;99646.47;1764970;80;21144;-62
2021/03/27 04:40:58;;;;;;;49.25;30.48;;;;;;;6.93;69.07;99649.66;1764889;80;21144;-62
2021/03/27 04:43:31;;;;;;;51.68;31.33;;;;;;;7.00;68.95;99646.05;1762689;80;21140;-64
2021/03/27 04:46:07;;;;;;;55.10;31.52;;;;;;;7.10;68.71;99643.86;1764892;80;21172;-62
2021/03/27 04:48:56;;;;;;;49.35;30.95;;;;;;;7.27;68.46;99647.01;1756667;80;21297;-63
2021/03/27 04:51:38;;;;;;;49.98;30.37;;;;;;;7.69;67.92;99645.88;1764728;81;21393;-64
2021/03/27 04:54:13;;;;;;;;;;;;;;;8.00;66.62;99649.90;1767517;80;21261;-63
2021/03/27 04:57:24;;;;;;;51.25;30.92;;;;;;;8.42;65.65;99644.41;1764837;80;20123;-62
2021/03/27 05:00:25;;;;;;;48.03;28.30;;;;;;;8.97;64.23;99654.56;1647543;84;21174;-60
2021/03/27 05:03:20;;;;;;;49.30;27.55;;;;;;;9.44;62.45;99654.98;1671345;86;21182;-63
2021/03/27 05:06:24;;;;;;;47.88;27.62;;;;;;;9.60;61.13;99654.56;1870626;76;22146;-64
2021/03/27 05:09:20;;;;;;;47.05;29.67;;;;;;;9.51;60.81;99662.91;1760271;80;21133;-61
2021/03/27 05:12:02;;;;;;;46.35;29.07;;;;;;;9.45;60.63;99664.05;1745616;81;21162;-62
2021/03/27 05:14:56;;;;;;;47.58;28.42;;;;;;;9.58;60.46;99666.95;1760500;80;21283;-63
2021/03/27 05:17:47;;;;;;;48.68;29.15;;;;;;;9.84;59.88;99667.62;1777038;81;21306;-62
2021/03/27 05:20:35;;;;;;;41.98;27.13;;;;;;;10.51;58.99;99673.14;1760510;80;21161;-63
2021/03/27 05:23:15;;;;;;;46.20;28.65;;;;;;;11.45;56.34;99672.07;1777178;80;21149;-65
2021/03/27 05:26:03;;;;;;;44.83;26.80;;;;;;;12.44;54.38;99677.61;1760277;81;21105;-62
2021/03/27 05:28:51;;;;;;;39.03;25.27;;;;;;;13.15;51.68;99679.03;1745525;81;21299;-63
2021/03/27 05:31:40;;;;;;;38.08;25.23;;;;;;;13.29;50.57;99683.53;1759329;81;21241;-63
2021/03/27 05:34:22;;;;;;;41.13;23.20;;;;;;;14.07;49.43;99683.02;1776822;81;21151;-63
2021/03/27 05:37:30;;;;;;;37.50;24.75;;;;;;;14.79;47.15;99682.24;1760576;81;21271;-63
2021/03/27 05:40:23;;;;;;;34.03;21.75;;;;;;;15.11;45.34;99683.70;1776570;80;21154;-62
2021/03/27 05:43:30;;;;;;;35.15;21.75;;;;;;;15.24;44.64;99690.23;1760537;81;21600;-63
2021/03/27 05:46:48;;;;;;;36.20;22.73;;;;;;;15.65;43.78;99692.97;1777131;81;21151;-63
2021/03/27 05:49:41;;;;;;;34.30;22.00;;;;;;;16.35;42.88;99691.30;1760467;81;21153;-61
2021/03/27 05:52:47;;;;;;;30.92;21.77;;;;;;;17.05;40.41;99700.31;1776918;81;21158;-63
2021/03/27 05:55:39;;;;;;;29.57;21.12;;;;;;;17.49;40.16;99700.99;1708602;84;21289;-65
2021/03/27 05:58:37;;;;;;;32.60;21.70;;;;;;;18.22;38.67;99707.50;1718669;83;21169;-60
2021/03/27 06:01:36;;;;;;;29.50;20.45;;;;;;;18.61;37.59;99710.63;1719150;83;21307;-65
2021/03/27 06:04:41;;;;;;;28.67;21.02;;;;;;;19.02;36.27;99708.05;1740750;82;21161;-63
2021/03/27 06:07:26;;;;;;;32.25;21.33;;;;;;;19.51;35.69;99704.81;1737821;82;21297;-61
2021/03/27 06:10:26;;;;;;;29.00;20.08;;;;;;;20.28;34.28;99709.81;1706042;81;21159;-63
2021/03/27 06:13:08;;;;;;;26.15;20.35;;;;;;;20.79;33.34;99710.27;1740953;82;21185;-64
2021/03/27 06:16:12;;;;;;;29.63;19.87;;;;;;;21.43;31.98;99717.33;1706994;84;21195;-64
2021/03/27 06:19:08;;;;;;;27.17;19.80;;;;;;;22.18;30.76;99714.27;1740372;82;22378;-61
2021/03/27 06:22:24;;;;;;;25.17;18.50;;;;;;;22.57;29.96;99726.48;1737384;82;21306;-64
2021/03/27 06:25:18;;;;;;;25.37;18.40;;;;;;;23.10;29.23;99718.95;1740038;82;21137;-62
2021/03/27 06:28:08;;;;;;;29.20;19.32;;;;;;;24.10;28.50;99722.58;1737428;82;21322;-63
2021/03/27 06:31:25;;;;;;;25.40;19.75;;;;;;;25.25;26.62;99730.06;1718831;83;21177;-62
2021/03/27 06:34:13;;;;;;;25.40;18.75;;;;;;;25.22;26.36;99738.58;1724006;81;21152;-65
2021/03/27 06:37:31;;;;;;;27.52;20.30;;;;;;;24.78;26.48;99742.29;1718779;83;21130;-63
2021/03/27 06:40:51;;;;;;;25.45;18.65;;;;;;;24.08;27.06;99738.44;1717597;83;21295;-63
2021/03/27 06:44:09;;;;;;;26.65;17.50;;;;;;;24.32;26.83;99743.82;1718501;83;21162;-67
2021/03/27 06:46:54;;;;;;;26.20;19.40;;;;;;;24.91;25.74;99737.86;1740227;82;21176;-65
2021/03/27 06:49:48;;;;;;;26.02;19.40;;;;;;;24.71;26.12;99749.58;1736598;82;21197;-62
2021/03/27 06:52:48;;;;;;;24.60;18.92;;;;;;;25.22;25.73;99747.36;1702365;82;21180;-65
2021/03/27 06:55:46;;;;;;;25.85;19.45;;;;;;;25.60;25.34;99756.95;1733145;82;21330;-66
2021/03/27 06:58:28;;;;;;;24.32;19.55;;;;;;;26.05;24.35;99756.09;1732431;83;21168;-64
2021/03/27 07:01:41;;;;;;;28.35;18.87;;;;;;;26.46;24.09;99761.51;1731826;83;21290;-64
2021/03/27 07:04:50;;;;;;;26.82;18.42;;;;;;;27.06;23.75;99765.59;1714241;83;21259;-74
2021/03/27 07:07:46;;;;;;;23.38;18.15;;;;;;;28.25;22.51;99763.20;1719309;83;21185;-64
2021/03/27 07:10:56;;;;;;;24.50;18.57;;;;;;;29.07;21.29;99769.28;1719281;83;21154;-66
2021/03/27 07:13:52;;;;;;;20.50;17.12;;;;;;;29.10;20.96;99769.11;1732953;83;21327;-63
2021/03/27 07:17:00;;;;;;;20.02;16.60;;;;;;;29.13;20.84;99768.97;1705712;83;21170;-64
2021/03/27 07:20:12;;;;;;;24.00;18.20;;;;;;;29.23;20.98;99771.97;1732690;83;21319;-65
2021/03/27 07:23:02;;;;;;;21.00;16.87;;;;;;;29.39;20.77;99766.72;1719495;83;21213;-65
2021/03/27 07:26:03;;;;;;;22.15;17.12;;;;;;;30.35;19.96;99775.14;1701838;84;21156;-65
2021/03/27 07:28:48;;;;;;;22.60;18.75;;;;;;;31.17;19.34;99781.87;1719407;83;21177;-65
2021/03/27 07:31:27;;;;;;;21.45;17.98;;;;;;;31.20;18.99;99787.01;1726614;83;21295;-66
2021/03/27 07:34:07;;;;;;;24.65;19.07;;;;;;;31.14;19.09;99788.25;1707145;82;21171;-63
2021/03/27 07:37:32;;;;;;;23.60;18.45;;;;;;;31.42;18.81;99786.55;1643017;83;21299;-65
2021/03/27 07:40:28;;;;;;;24.35;17.67;;;;;;;31.69;18.28;99792.45;1714967;83;21188;-68
2021/03/27 07:43:13;;;;;;;24.32;17.80;;;;;;;31.49;18.70;99797.70;1706509;82;21641;-66
2021/03/27 07:46:09;;;;;;;22.65;17.90;;;;;;;32.17;17.87;99792.95;1691192;84;21125;-65
2021/03/27 07:48:59;;;;;;;25.08;17.67;;;;;;;32.00;17.95;99796.23;1701211;83;21137;-66
2021/03/27 07:52:23;;;;;;;23.90;18.85;;;;;;;32.09;17.81;99795.28;1669871;84;21319;-67
2021/03/27 07:55:20;;;;;;;25.92;19.48;;;;;;;31.44;18.16;99802.47;1596575;89;21269;-66
2021/03/27 07:58:34;;;;;;;21.75;18.25;;;;;;;31.74;18.09;99802.36;1832113;76;22182;-66
2021/03/27 08:01:33;;;;;;;25.27;18.27;;;;;;;31.68;17.93;99798.28;1729777;81;21153;-64
2021/03/27 08:04:48;;;;;;;23.42;16.67;;;;;;;31.76;17.94;99797.80;1731849;81;21366;-66
2021/03/27 08:08:00;;;;;;;23.18;17.35;;;;;;;31.58;17.64;99798.48;1746109;81;21156;-64
2021/03/27 08:10:50;;;;;;;27.25;16.52;;;;;;;31.54;17.77;99792.94;1746251;82;21163;-64
2021/03/27 08:13:37;;;;;;;20.40;17.20;;;;;;;31.59;17.82;99790.84;1746361;81;21143;-65
2021/03/27 08:16:41;;;;;;;23.25;16.97;;;;;;;31.97;17.52;99788.42;1741329;82;21294;-65
2021/03/27 08:20:00;;;;;;;21.05;17.20;;;;;;;32.10;17.31;99791.16;1730541;81;21200;-65
2021/03/27 08:23:20;;;;;;;20.62;17.30;;;;;;;32.26;17.16;99784.81;1728711;83;21304;-65
2021/03/27 08:26:17;;;;;;;19.90;16.62;;;;;;;31.74;17.32;99781.02;1728741;83;21176;-67
2021/03/27 08:29:44;;;;;;;21.62;17.35;;;;;;;30.74;18.01;99779.09;1727785;83;21615;-76
2021/03/27 08:33:07;;;;;;;17.12;14.78;;;;;;;29.32;18.79;99770.17;1728824;81;21197;-65
2021/03/27 08:36:16;;;;;;;18.30;14.98;;;;;;;28.25;19.29;99774.28;1728538;82;21318;-68
2021/03/27 08:39:24;;;;;;;18.50;15.13;;;;;;;27.87;19.86;99779.17;1728796;82;21242;-76
2021/03/27 08:42:24;;;;;;;19.17;14.87;;;;;;;27.45;19.83;99769.61;1728725;82;21248;-73
2021/03/27 08:45:18;;;;;;;18.32;14.90;;;;;;;27.02;20.25;99767.52;1728031;82;21221;-66
2021/03/27 08:48:28;;;;;;;20.08;15.70;;;;;;;26.02;21.10;99768.12;1738139;81;21149;-67
2021/03/27 08:51:46;;;;;;;21.17;16.55;;;;;;;25.65;21.55;99762.92;1766158;81;21157;-65
2021/03/27 08:54:58;;;;;;;19.27;14.95;;;;;;;24.90;22.37;99760.35;1738412;81;21316;-67
2021/03/27 08:57:52;;;;;;;22.02;16.40;;;;;;;24.72;22.08;99753.94;1729939;81;21197;-67
2021/03/27 09:00:48;;;;;;;18.92;15.05;;;;;;;23.37;22.86;99755.03;1725893;82;21327;-63
2021/03/27 09:03:24;;;;;;;18.65;15.55;;;;;;;21.83;23.38;99756.72;1725130;82;21165;-65
2021/03/27 09:06:03;;;;;;;20.85;14.85;;;;;;;20.92;24.69;99755.05;1724936;82;21297;-65
2021/03/27 09:08:49;;;;;;;20.40;15.58;;;;;;;20.72;25.61;99748.84;1724341;83;21157;-63
2021/03/27 09:11:44;;;;;;;21.55;15.78;;;;;;;20.28;26.01;99743.03;1724508;83;21141;-63
2021/03/27 09:14:48;;;;;;;24.55;17.37;;;;;;;19.48;27.49;99737.58;1724536;82;21162;-64
2021/03/27 09:17:47;;;;;;;22.67;17.92;;;;;;;18.57;28.71;99742.48;1723660;82;21159;-65
2021/03/27 09:20:23;;;;;;;20.77;15.32;;;;;;;17.95;29.27;99731.63;1724837;83;21300;-64
2021/03/27 09:22:58;;;;;;;21.97;15.90;;;;;;;17.08;28.76;99731.59;1724459;82;21177;-65
2021/03/27 09:26:07;;;;;;;24.40;14.78;;;;;;;16.37;30.57;99724.74;1699067;83;21386;-63
2021/03/27 09:28:55;;;;;;;22.02;14.43;;;;;;;16.09;30.95;99730.38;1724499;82;21157;-64
2021/03/27 09:32:01;;;;;;;21.65;14.60;;;;;;;15.76;30.79;99732.92;1724657;82;21299;-64
2021/03/27 09:35:16;;;;;;;21.45;15.40;;;;;;;15.55;31.01;99728.94;1724759;82;21565;-65
2021/03/27 09:37:59;;;;;;;23.45;16.05;;;;;;;15.24;31.88;99733.13;1724780;82;21166;-64
2021/03/27 09:40:35;;;;;;;23.52;15.58;;;;;;;15.12;31.93;99736.56;1724459;83;21288;-63
2021/03/27 09:43:52;;;;;;;20.55;15.15;;;;;;;15.24;31.81;99732.73;1724582;82;21206;-65
2021/03/27 09:46:35;;;;;;;24.47;16.37;;;;;;;15.17;32.36;99736.16;1724728;82;21170;-63
2021/03/27 09:49:40;;;;;;;22.85;15.55;;;;;;;15.29;32.47;99718.02;1724432;83;21146;-64
2021/03/27 09:52:22;;;;;;;22.95;16.05;;;;;;;15.53;32.36;99727.62;1724461;82;21347;-64
2021/03/27 09:55:34;;;;;;;23.98;15.05;;;;;;;15.72;32.29;99714.28;1721153;82;21166;-63
2021/03/27 09:58:20;;;;;;;24.77;15.45;;;;;;;15.70;32.05;99712.09;1724622;83;21320;-64
2021/03/27 10:00:56;;;;;;;25.02;14.98;;;;;;;15.61;31.74;99723.73;1724391;82;21304;-62
2021/03/27 10:04:12;;;;;;;27.55;18.40;;;;;;;15.54;31.97;99719.37;1724432;82;21154;-63
2021/03/27 10:06:51;;;;;;;27.13;17.70;;;;;;;15.39;33.11;99713.69;1724611;83;21157;-63
2021/03/27 10:09:46;;;;;;;30.35;18.85;;;;;;;15.43;33.47;99722.39;1724459;82;21146;-64
2021/03/27 10:12:40;;;;;;;25.12;16.67;;;;;;;15.27;33.87;99715.83;1724446;82;21150;-64
2021/03/27 10:15:22;;;;;;;25.08;17.32;;;;;;;15.27;33.80;99722.77;1724508;82;21142;-64
2021/03/27 10:17:58;;;;;;;29.10;19.57;;;;;;;15.45;33.59;99715.47;1724108;82;21600;-64
2021/03/27 10:20:50;;;;;;;21.23;14.47;;;;;;;15.55;32.87;99721.13;1717398;83;21292;-64
2021/03/27 10:23:41;;;;;;;22.75;15.03;;;;;;;15.46;31.81;99719.79;1724567;82;21174;-64
2021/03/27 10:26:30;;;;;;;22.02;14.30;;;;;;;15.17;31.43;99715.36;1724429;82;21170;-64
2021/03/27 10:29:12;;;;;;;21.97;14.35;;;;;;;15.11;31.42;99716.20;1724438;82;21175;-64
2021/03/27 10:31:45;;;;;;;22.62;16.67;;;;;;;15.16;31.90;99714.90;1724690;82;21581;-64
2021/03/27 10:34:42;;;;;;;28.77;18.42;;;;;;;15.10;33.27;99712.28;1724418;82;21728;-64
2021/03/27 10:37:44;;;;;;;34.78;22.27;;;;;;;15.01;33.40;99714.83;1724709;82;21162;-65
2021/03/27 10:40:40;;;;;;;32.60;19.32;;;;;;;14.86;34.07;99710.00;1724744;82;21320;-64
2021/03/27 10:43:42;;;;;;;24.57;15.72;;;;;;;14.51;34.24;99708.02;1724583;83;21158;-64
2021/03/27 10:46:31;;;;;;;;;;;;;;;14.19;34.06;99718.58;1669324;83;21157;-64
2021/03/27 10:49:25;;;;;;;22.52;13.90;;;;;;;14.11;33.40;99712.88;1690021;83;20187;-64
2021/03/27 10:52:36;;;;;;;21.07;13.93;;;;;;;14.32;33.50;99708.32;1675311;84;21225;-64
2021/03/27 10:55:28;;;;;;;22.27;14.10;;;;;;;14.72;32.84;99709.05;1689458;83;21193;-64
2021/03/27 10:58:19;;;;;;;24.85;15.58;;;;;;;15.15;32.22;99700.17;1667271;86;21176;-64
2021/03/27 11:01:17;;;;;;;23.02;15.03;;;;;;;15.54;31.95;99699.42;1692155;83;21193;-65
2021/03/27 11:04:26;;;;;;;21.68;15.03;;;;;;;15.78;31.44;99688.69;1667582;85;21167;-64
2021/03/27 11:07:21;;;;;;;27.98;17.23;;;;;;;16.06;31.20;99692.19;1692108;83;21291;-62
2021/03/27 11:10:19;;;;;;;23.45;15.25;;;;;;;15.91;31.22;99684.37;1667552;85;21314;-64
2021/03/27 11:13:44;;;;;;;26.50;16.17;;;;;;;15.50;31.41;99675.59;1692235;83;21157;-64
2021/03/27 11:16:54;;;;;;;25.32;16.35;;;;;;;15.03;32.34;99680.62;1584574;89;21231;-64
2021/03/27 11:20:07;;;;;;;25.40;15.85;;;;;;;14.67;33.08;99692.12;1636210;88;21206;-64
2021/03/27 11:22:49;;;;;;;25.57;17.73;;;;;;;14.48;33.30;99688.52;1689909;83;21607;-62
2021/03/27 11:25:34;;;;;;;25.27;16.60;;;;;;;14.54;33.50;99682.09;1721959;83;21275;-64
2021/03/27 11:28:19;;;;;;;26.27;16.42;;;;;;;14.66;33.38;99689.53;1724648;82;21126;-64
2021/03/27 11:31:14;;;;;;;24.65;15.72;;;;;;;14.87;33.15;99687.05;1685041;85;21165;-65
2021/03/27 11:34:35;;;;;;;24.52;15.78;;;;;;;15.15;32.76;99679.38;1691831;84;21370;-63
2021/03/27 11:37:20;;;;;;;20.92;12.00;;;;;;;15.43;32.06;99679.47;1692000;84;21324;-64
2021/03/27 11:39:56;;;;;;;22.67;14.60;;;;;;;15.60;30.23;99683.84;1692324;83;21158;-64
2021/03/27 11:42:44;;;;;;;29.18;21.35;;;;;;;15.60;29.06;99689.49;1667142;86;21166;-65
2021/03/27 11:45:17;;;;;;;29.12;20.20;;;;;;;15.43;29.49;99688.58;1674327;85;21174;-64
2021/03/27 11:48:31;;;;;;;29.72;21.82;;;;;;;15.27;30.10;99685.92;1666553;86;21172;-64
2021/03/27 11:51:23;;;;;;;21.82;13.45;;;;;;;15.20;30.41;99688.06;1692160;83;21169;-64
2021/03/27 11:54:25;;;;;;;27.27;18.25;;;;;;;15.10;30.40;99681.09;1666989;85;21187;-64
2021/03/27 11:57:37;;;;;;;22.20;14.40;;;;;;;15.10;30.63;99675.45;1692227;85;21158;-63
2021/03/27 12:00:47;;;;;;;19.90;11.78;;;;;;;15.41;30.31;99683.36;1663704;85;21179;-64
2021/03/27 12:03:55;;;;;;;16.93;12.03;;;;;;;15.88;29.45;99679.16;1729837;81;21154;-64
2021/03/27 12:06:37;;;;;;;17.45;12.23;;;;;;;16.32;28.83;99686.10;1729806;81;21288;-64
2021/03/27 12:09:35;;;;;;;19.05;11.97;;;;;;;16.54;27.65;99680.00;1730073;81;21288;-64
2021/03/27 12:12:46;;;;;;;20.43;12.53;;;;;;;16.43;27.59;99683.04;1702965;83;21320;-64
2021/03/27 12:15:39;;;;;;;17.52;11.50;;;;;;;16.28;28.06;99681.31;1684677;83;21278;-64
2021/03/27 12:18:29;;;;;;;17.15;11.60;;;;;;;16.20;28.01;99680.02;1729810;81;21138;-63
2021/03/27 12:21:10;;;;;;;19.40;12.40;;;;;;;15.88;28.74;99684.38;1711748;82;21295;-64
2021/03/27 12:23:44;;;;;;;17.30;11.68;;;;;;;15.54;29.31;99685.56;1730029;81;21170;-64
2021/03/27 12:26:57;;;;;;;18.20;11.53;;;;;;;15.54;29.11;99681.66;1726083;81;21595;-65
2021/03/27 12:29:44;;;;;;;21.23;11.97;;;;;;;15.65;29.11;99677.36;1730068;81;21189;-64
2021/03/27 12:32:59;;;;;;;21.30;12.23;;;;;;;15.83;29.13;99674.81;1730066;83;21137;-64
2021/03/27 12:35:40;;;;;;;22.02;13.15;;;;;;;15.94;29.18;99666.14;1676459;84;21341;-64
2021/03/27 12:38:28;;;;;;;16.30;11.57;;;;;;;16.13;28.95;99670.50;1676074;85;21166;-64
2021/03/27 12:41:02;;;;;;;20.68;11.48;;;;;;;16.32;28.71;99679.59;1676290;84;21183;-64
2021/03/27 12:43:33;;;;;;;18.07;10.53;;;;;;;16.73;28.33;99668.23;1662449;85;21310;-65
2021/03/27 12:46:36;;;;;;;15.53;10.60;;;;;;;17.10;27.89;99662.05;1674745;84;21190;-65
2021/03/27 12:49:24;;;;;;;17.85;10.50;;;;;;;17.38;27.67;99662.33;1662475;85;21302;-64
2021/03/27 12:52:36;;;;;;;15.43;10.43;;;;;;;17.74;27.27;99670.39;1662527;85;21325;-64
2021/03/27 12:55:26;;;;;;;19.07;11.48;;;;;;;17.96;26.90;99666.78;1662433;85;21160;-64
2021/03/27 12:58:11;;;;;;;15.18;10.18;;;;;;;18.13;26.64;99678.83;1662156;86;21342;-64
2021/03/27 13:00:57;;;;;;;19.45;12.50;;;;;;;18.32;26.35;99680.41;1662650;86;21351;-64
2021/03/27 13:03:56;;;;;;;18.25;12.47;;;;;;;18.28;26.54;99682.61;1662288;85;21294;-64
2021/03/27 13:06:54;;;;;;;17.35;11.35;;;;;;;18.36;26.62;99675.56;1662298;86;21350;-64
2021/03/27 13:09:56;;;;;;;18.07;11.97;;;;;;;18.39;26.34;99671.64;1662349;85;21156;-64
2021/03/27 13:13:06;;;;;;;16.12;11.18;;;;;;;18.26;26.59;99666.08;1662675;86;21163;-63
2021/03/27 13:16:04;;;;;;;20.37;12.43;;;;;;;18.43;26.42;99665.94;1662331;85;21132;-64
2021/03/27 13:18:41;;;;;;;17.80;12.00;;;;;;;18.30;26.71;99662.57;1662525;85;21180;-64
2021/03/27 13:21:17;;;;;;;17.60;12.20;;;;;;;18.24;26.76;99658.69;1662526;85;21582;-65